createdAt,value
2023-03-26T00:01:23.947Z,16.85
2023-03-26T00:03:55.346Z,15.20
2023-03-26T00:06:34.976Z,15.85
2023-03-26T00:09:02.285Z,15.65
2023-03-26T00:11:33.480Z,14.40
2023-03-26T00:14:00.825Z,17.23
2023-03-26T00:16:30.350Z,16.80
2023-03-26T00:18:58.086Z,14.73
2023-03-26T00:21:29.419Z,18.23
2023-03-26T00:23:59.709Z,17.77
2023-03-26T00:26:31.303Z,17.63
2023-03-26T00:29:00.262Z,14.52
2023-03-26T00:31:27.833Z,15.70
2023-03-26T00:34:03.705Z,15.63
2023-03-26T00:36:32.189Z,14.93
2023-03-26T00:39:01.236Z,17.38
2023-03-26T00:41:30.988Z,14.55
2023-03-26T00:43:59.806Z,14.77
2023-03-26T00:46:29.897Z,14.98
2023-03-26T00:51:27.821Z,15.32
2023-03-26T00:53:55.828Z,15.73
2023-03-26T00:56:25.985Z,15.98
2023-03-26T00:58:53.228Z,16.02
2023-03-26T01:01:27.677Z,16.67
2023-03-26T01:04:08.819Z,16.92
2023-03-26T01:06:38.295Z,16.70
2023-03-26T01:09:18.802Z,17.63
2023-03-26T01:11:46.401Z,15.93
2023-03-26T01:14:16.549Z,15.23
2023-03-26T01:16:54.830Z,16.55
2023-03-26T01:19:47.945Z,17.63
2023-03-26T01:22:17.547Z,17.00
2023-03-26T01:24:48.716Z,15.77
2023-03-26T01:27:47.487Z,17.95
2023-03-26T01:30:33.701Z,17.70
2023-03-26T01:33:36.595Z,18.75
2023-03-26T01:39:08.010Z,17.42
2023-03-26T01:41:47.159Z,17.92
2023-03-26T01:44:35.546Z,17.63
2023-03-26T01:47:02.822Z,17.52
2023-03-26T01:49:30.367Z,15.98
2023-03-26T01:51:58.088Z,16.88
2023-03-26T01:54:27.413Z,17.42
2023-03-26T01:57:26.533Z,15.75
2023-03-26T02:00:12.094Z,15.82
2023-03-26T02:02:48.440Z,16.73
2023-03-26T02:05:40.483Z,15.65
2023-03-26T02:08:31.702Z,15.27
2023-03-26T02:10:59.124Z,16.30
2023-03-26T02:13:26.792Z,15.15
2023-03-26T02:15:58.577Z,15.77
2023-03-26T02:18:36.437Z,15.85
2023-03-26T02:21:06.312Z,15.98
2023-03-26T02:23:35.972Z,16.27
2023-03-26T02:26:08.428Z,16.13
2023-03-26T02:28:35.745Z,15.25
2023-03-26T02:31:06.045Z,15.30
2023-03-26T02:33:33.914Z,14.30
2023-03-26T02:36:04.231Z,14.25
2023-03-26T02:38:38.056Z,15.00
2023-03-26T02:41:09.020Z,14.20
2023-03-26T02:43:36.477Z,15.50
2023-03-26T02:46:03.997Z,14.32
2023-03-26T02:48:35.444Z,14.32
2023-03-26T02:51:03.072Z,13.00
2023-03-26T02:53:30.801Z,17.63
2023-03-26T02:55:58.470Z,14.68
2023-03-26T02:58:26.393Z,15.25
2023-03-26T03:00:59.288Z,15.65
2023-03-26T03:03:27.643Z,15.18
2023-03-26T03:05:55.480Z,15.07
2023-03-26T03:08:29.288Z,13.13
2023-03-26T03:11:02.223Z,14.32
2023-03-26T03:13:29.672Z,14.00
2023-03-26T03:15:59.130Z,14.82
2023-03-26T03:18:27.880Z,13.43
2023-03-26T03:20:55.446Z,13.55
2023-03-26T03:23:24.572Z,13.90
2023-03-26T03:25:52.804Z,14.77
2023-03-26T03:28:22.532Z,14.27
2023-03-26T03:30:53.237Z,13.98
2023-03-26T03:33:21.474Z,13.75
2023-03-26T03:35:50.171Z,12.35
2023-03-26T03:38:19.228Z,12.32
2023-03-26T03:40:46.519Z,13.23
2023-03-26T03:43:14.117Z,12.32
2023-03-26T03:45:41.360Z,12.13
2023-03-26T03:48:09.286Z,10.57
2023-03-26T03:50:37.239Z,10.95
2023-03-26T03:53:05.699Z,12.55
2023-03-26T03:55:32.991Z,11.55
2023-03-26T03:58:00.331Z,10.85
2023-03-26T04:00:27.855Z,9.85
2023-03-26T04:02:56.371Z,10.95
2023-03-26T04:05:23.749Z,12.45
2023-03-26T04:07:51.409Z,11.20
2023-03-26T04:10:18.732Z,11.63
2023-03-26T04:12:47.780Z,13.98
2023-03-26T04:15:15.587Z,13.43
2023-03-26T04:17:43.166Z,12.88
2023-03-26T04:20:15.723Z,11.55
2023-03-26T04:22:43.955Z,11.68
2023-03-26T04:25:15.574Z,11.18
2023-03-26T04:27:44.167Z,9.98
2023-03-26T04:30:15.050Z,10.27
2023-03-26T04:32:44.769Z,9.27
2023-03-26T04:35:13.540Z,10.35
2023-03-26T04:37:44.361Z,10.10
2023-03-26T04:40:19.495Z,9.82
2023-03-26T04:42:46.740Z,8.93
2023-03-26T04:45:22.576Z,9.13
2023-03-26T04:47:50.705Z,9.68
2023-03-26T04:52:50.097Z,10.68
2023-03-26T04:55:39.696Z,9.27
2023-03-26T04:58:07.005Z,9.55
2023-03-26T05:00:34.367Z,8.95
2023-03-26T05:03:02.204Z,8.57
2023-03-26T05:05:30.378Z,9.65
2023-03-26T05:07:57.693Z,8.55
2023-03-26T05:10:26.697Z,8.90
2023-03-26T05:12:54.435Z,8.95
2023-03-26T05:15:22.017Z,8.88
2023-03-26T05:17:50.197Z,9.70
2023-03-26T05:20:22.996Z,10.10
2023-03-26T05:22:50.589Z,9.98
2023-03-26T05:25:19.369Z,8.45
2023-03-26T05:27:46.655Z,8.00
2023-03-26T05:30:18.706Z,8.63
2023-03-26T05:35:32.983Z,7.95
2023-03-26T05:38:02.258Z,7.97
2023-03-26T05:40:29.907Z,6.95
2023-03-26T05:42:59.091Z,7.07
2023-03-26T05:45:26.390Z,7.25
2023-03-26T05:47:54.987Z,6.55
2023-03-26T05:50:22.365Z,7.30
2023-03-26T05:52:52.885Z,7.93
2023-03-26T05:55:20.217Z,7.18
2023-03-26T05:57:47.679Z,6.47
2023-03-26T06:00:18.584Z,7.13
2023-03-26T06:02:47.211Z,6.97
2023-03-26T06:05:14.551Z,6.50
2023-03-26T06:07:41.916Z,6.50
2023-03-26T06:10:09.643Z,6.13
2023-03-26T06:12:37.571Z,5.68
2023-03-26T06:15:05.777Z,6.13
2023-03-26T06:17:33.165Z,5.93
2023-03-26T06:20:00.501Z,5.88
2023-03-26T06:22:28.471Z,6.72
2023-03-26T06:24:56.270Z,5.90
2023-03-26T06:27:24.387Z,5.78
2023-03-26T06:29:51.621Z,5.70
2023-03-26T06:32:20.514Z,5.88
2023-03-26T06:34:48.580Z,5.57
2023-03-26T06:37:16.418Z,5.70
2023-03-26T06:39:44.107Z,5.82
2023-03-26T06:42:11.476Z,5.40
2023-03-26T06:44:39.507Z,5.47
2023-03-26T06:47:07.958Z,5.50
2023-03-26T06:49:38.190Z,4.95
2023-03-26T06:52:12.929Z,4.88
2023-03-26T06:54:40.675Z,5.97
2023-03-26T06:57:08.037Z,5.63
2023-03-26T06:59:37.095Z,5.63
2023-03-26T07:02:04.658Z,6.57
2023-03-26T07:04:31.917Z,5.40
2023-03-26T07:06:59.992Z,5.82
2023-03-26T07:09:30.317Z,6.38
2023-03-26T07:11:57.922Z,5.72
2023-03-26T07:14:27.969Z,6.07
2023-03-26T07:16:55.424Z,4.95
2023-03-26T07:19:22.860Z,5.63
2023-03-26T07:21:51.034Z,5.63
2023-03-26T07:24:18.638Z,5.70
2023-03-26T07:27:08.176Z,5.78
2023-03-26T07:30:14.161Z,6.30
2023-03-26T07:33:21.412Z,5.22
2023-03-26T07:36:17.128Z,5.13
2023-03-26T07:39:15.528Z,4.57
2023-03-26T07:41:45.643Z,4.80
2023-03-26T07:44:21.374Z,5.18
2023-03-26T07:46:49.684Z,4.97
2023-03-26T07:49:18.053Z,5.35
2023-03-26T07:51:45.585Z,5.15
2023-03-26T07:54:15.498Z,5.20
2023-03-26T07:56:59.584Z,5.57
2023-03-26T07:59:38.650Z,5.00
2023-03-26T08:02:18.665Z,5.70
2023-03-26T08:05:04.696Z,5.28
2023-03-26T08:07:54.383Z,5.20
2023-03-26T08:10:36.394Z,4.72
2023-03-26T08:13:31.632Z,5.00
2023-03-26T08:16:16.666Z,5.05
2023-03-26T08:18:55.582Z,5.68
2023-03-26T08:21:45.110Z,6.22
2023-03-26T08:24:44.169Z,5.03
2023-03-26T08:27:24.383Z,5.93
2023-03-26T08:30:02.248Z,5.65
2023-03-26T08:32:30.520Z,5.75
2023-03-26T08:35:00.193Z,5.70
2023-03-26T08:37:27.784Z,5.57
2023-03-26T08:39:55.079Z,6.43
2023-03-26T08:42:47.922Z,6.85
2023-03-26T08:45:33.661Z,5.30
2023-03-26T08:48:26.517Z,6.13
2023-03-26T08:51:17.280Z,5.75
2023-03-26T08:53:56.242Z,6.23
2023-03-26T08:56:42.379Z,6.68
2023-03-26T08:59:29.470Z,6.45
2023-03-26T09:02:21.779Z,6.82
2023-03-26T09:05:08.115Z,6.70
2023-03-26T09:07:43.877Z,6.53
2023-03-26T09:10:22.619Z,8.05
2023-03-26T09:13:13.262Z,6.78
2023-03-26T09:16:09.150Z,7.88
2023-03-26T09:19:10.143Z,7.72
2023-03-26T09:21:40.441Z,7.43
2023-03-26T09:24:32.398Z,7.95
2023-03-26T09:27:07.591Z,7.53
2023-03-26T09:29:56.858Z,9.15
2023-03-26T09:32:36.675Z,11.00
2023-03-26T09:35:33.462Z,9.13
2023-03-26T09:38:21.908Z,8.65
2023-03-26T09:40:59.094Z,7.97
2023-03-26T09:44:00.095Z,7.78
2023-03-26T09:46:33.675Z,7.28
2023-03-26T09:49:08.309Z,8.68
2023-03-26T09:51:48.107Z,7.80
2023-03-26T09:54:24.342Z,8.00
2023-03-26T09:56:58.651Z,7.68
2023-03-26T09:59:44.847Z,8.38
2023-03-26T10:02:46.925Z,6.70
2023-03-26T10:05:32.717Z,7.03
2023-03-26T10:08:09.032Z,8.40
2023-03-26T10:10:51.726Z,9.13
2023-03-26T10:13:39.837Z,8.45
2023-03-26T10:16:19.563Z,8.75
2023-03-26T10:18:58.746Z,9.15
2023-03-26T10:21:56.192Z,9.05
2023-03-26T10:24:24.229Z,8.82
2023-03-26T10:27:08.371Z,9.98
2023-03-26T10:30:10.248Z,9.60
2023-03-26T10:33:13.041Z,9.63
2023-03-26T10:36:02.481Z,9.27
2023-03-26T10:38:32.855Z,9.13
2023-03-26T10:41:06.760Z,8.50
2023-03-26T10:43:57.793Z,9.23
2023-03-26T10:47:08.499Z,11.65
2023-03-26T10:49:42.058Z,9.20
2023-03-26T10:52:13.189Z,10.98
2023-03-26T10:55:16.383Z,9.77
2023-03-26T10:57:46.276Z,8.52
2023-03-26T11:00:27.055Z,8.15
2023-03-26T11:03:17.426Z,7.55
2023-03-26T11:06:15.956Z,7.97
2023-03-26T11:09:12.280Z,9.00
2023-03-26T11:11:46.306Z,9.98
2023-03-26T11:14:39.842Z,7.45
2023-03-26T11:17:40.842Z,8.13
2023-03-26T11:20:22.543Z,6.35
2023-03-26T11:23:22.352Z,8.05
2023-03-26T11:25:58.787Z,6.82
2023-03-26T11:28:42.456Z,6.07
2023-03-26T11:31:54.181Z,6.63
2023-03-26T11:34:25.720Z,6.70
2023-03-26T11:36:54.661Z,5.72
2023-03-26T11:39:24.621Z,5.25
2023-03-26T11:41:53.348Z,6.72
2023-03-26T11:44:28.735Z,6.45
2023-03-26T11:46:58.943Z,7.38
2023-03-26T11:49:27.090Z,4.60
2023-03-26T11:51:54.438Z,5.53
2023-03-26T11:54:22.509Z,5.35
2023-03-26T11:57:04.864Z,5.80
2023-03-26T11:59:53.133Z,5.72
2023-03-26T12:02:44.848Z,5.10
2023-03-26T12:05:21.089Z,6.10
2023-03-26T12:07:54.775Z,6.43
2023-03-26T12:10:27.645Z,5.80
2023-03-26T12:12:59.342Z,6.45
2023-03-26T12:15:32.162Z,6.30
2023-03-26T12:18:00.687Z,5.65
2023-03-26T12:20:32.595Z,5.93
2023-03-26T12:23:01.341Z,5.90
2023-03-26T12:25:38.689Z,5.63
2023-03-26T12:28:13.569Z,6.13
2023-03-26T12:30:42.379Z,6.65
2023-03-26T12:33:19.909Z,7.78
2023-03-26T12:35:47.875Z,6.10
2023-03-26T12:38:27.671Z,5.85
2023-03-26T12:44:46.127Z,6.00
2023-03-26T12:44:47.004Z,8.13
2023-03-26T12:47:58.717Z,6.10
2023-03-26T12:50:34.668Z,6.85
2023-03-26T12:53:27.207Z,5.50
2023-03-26T12:56:07.143Z,6.47
2023-03-26T12:58:51.397Z,5.63
2023-03-26T13:01:30.831Z,6.53
2023-03-26T13:04:05.333Z,6.90
2023-03-26T13:06:59.078Z,5.85
2023-03-26T13:09:41.942Z,6.88
2023-03-26T13:12:46.137Z,5.82
2023-03-26T13:15:17.687Z,5.28
2023-03-26T13:18:07.672Z,8.45
2023-03-26T13:21:00.593Z,7.30
2023-03-26T13:24:01.780Z,8.45
2023-03-26T13:27:00.377Z,6.72
2023-03-26T13:29:33.585Z,4.53
2023-03-26T13:32:12.809Z,5.85
2023-03-26T13:35:04.370Z,6.18
2023-03-26T13:40:25.568Z,6.80
2023-03-26T13:43:24.500Z,7.70
2023-03-26T13:45:56.730Z,7.45
2023-03-26T13:48:32.027Z,6.57
2023-03-26T13:51:05.270Z,6.10
2023-03-26T13:53:41.997Z,5.97
2023-03-26T13:56:17.729Z,6.18
2023-03-26T13:58:50.127Z,6.75
2023-03-26T14:01:22.766Z,5.82
2023-03-26T14:03:50.731Z,6.65
2023-03-26T14:06:42.463Z,7.07
2023-03-26T14:09:18.833Z,7.68
2023-03-26T14:11:56.783Z,7.15
2023-03-26T14:14:43.446Z,7.40
2023-03-26T14:17:34.421Z,8.57
2023-03-26T14:20:27.116Z,6.93
2023-03-26T14:23:17.787Z,6.60
2023-03-26T14:26:10.939Z,7.97
2023-03-26T14:28:57.410Z,6.07
2023-03-26T14:31:43.623Z,6.88
2023-03-26T14:34:34.401Z,6.10
2023-03-26T14:37:27.885Z,6.93
2023-03-26T14:40:17.141Z,7.03
2023-03-26T14:42:56.504Z,8.57
2023-03-26T14:45:23.990Z,7.47
2023-03-26T14:48:20.512Z,6.93
2023-03-26T14:51:07.283Z,6.70
2023-03-26T14:53:45.143Z,8.45
2023-03-26T14:56:31.186Z,7.53
2023-03-26T14:59:31.785Z,8.32
2023-03-26T15:02:18.772Z,8.70
2023-03-26T15:05:10.497Z,6.43
2023-03-26T15:08:02.278Z,7.70
2023-03-26T15:10:47.008Z,6.40
2023-03-26T15:13:51.934Z,6.15
2023-03-26T15:16:56.915Z,6.18
2023-03-26T15:19:58.092Z,5.68
2023-03-26T15:22:26.201Z,6.03
2023-03-26T15:25:02.633Z,7.35
2023-03-26T15:27:49.369Z,6.47
2023-03-26T15:30:25.385Z,5.75
2023-03-26T15:33:17.091Z,5.82
2023-03-26T15:35:59.494Z,7.63
2023-03-26T15:38:38.467Z,6.68
2023-03-26T15:41:11.804Z,10.90
2023-03-26T15:44:23.521Z,15.55
2023-03-26T15:46:59.638Z,18.02
2023-03-26T15:49:39.986Z,13.75
2023-03-26T15:52:22.118Z,12.45
2023-03-26T15:55:01.414Z,11.25
2023-03-26T15:57:57.990Z,10.80
2023-03-26T16:00:31.669Z,10.20
2023-03-26T16:03:11.737Z,9.63
2023-03-26T16:06:00.012Z,9.27
2023-03-26T16:09:01.227Z,8.75
2023-03-26T16:11:57.181Z,8.77
2023-03-26T16:14:47.491Z,8.15
2023-03-26T16:17:23.385Z,7.95
2023-03-26T16:19:55.339Z,9.15
2023-03-26T16:23:03.349Z,9.77
2023-03-26T16:25:34.271Z,10.45
2023-03-26T16:28:24.878Z,8.43
2023-03-26T16:31:23.356Z,9.18
2023-03-26T16:34:20.240Z,7.70
2023-03-26T16:36:51.363Z,9.13
2023-03-26T16:42:06.166Z,9.00
2023-03-26T16:45:06.458Z,7.95
2023-03-26T16:47:49.534Z,7.70
2023-03-26T16:50:44.366Z,7.03
2023-03-26T16:53:46.618Z,7.90
2023-03-26T16:56:22.329Z,7.20
2023-03-26T16:58:55.191Z,7.63
2023-03-26T17:01:35.257Z,7.68
2023-03-26T17:04:20.513Z,7.18
2023-03-26T17:07:08.614Z,8.73
2023-03-26T17:09:52.994Z,8.98
2023-03-26T17:12:37.446Z,8.32
2023-03-26T17:15:12.908Z,7.82
2023-03-26T17:20:33.135Z,7.80
2023-03-26T17:23:04.224Z,8.55
2023-03-26T17:25:54.122Z,8.20
2023-03-26T17:28:49.399Z,8.43
2023-03-26T17:31:42.750Z,8.63
2023-03-26T17:34:46.765Z,7.80
2023-03-26T17:37:20.296Z,8.48
2023-03-26T17:40:12.625Z,8.32
2023-03-26T17:43:01.713Z,7.80
2023-03-26T17:45:30.518Z,7.47
2023-03-26T17:48:06.560Z,7.78
2023-03-26T17:50:41.159Z,7.72
2023-03-26T17:53:17.926Z,7.53
2023-03-26T17:55:45.864Z,7.13
2023-03-26T17:58:27.627Z,7.22
2023-03-26T18:01:32.359Z,7.30
2023-03-26T18:04:01.817Z,7.95
2023-03-26T18:06:51.699Z,8.30
2023-03-26T18:09:37.146Z,8.68
2023-03-26T18:12:29.333Z,8.73
2023-03-26T18:15:21.331Z,8.80
2023-03-26T18:17:50.204Z,9.18
2023-03-26T18:20:23.261Z,9.35
2023-03-26T18:22:51.778Z,8.20
2023-03-26T18:25:29.391Z,9.52
2023-03-26T18:27:56.981Z,9.68
2023-03-26T18:30:26.001Z,9.63
2023-03-26T18:33:01.674Z,10.20
2023-03-26T18:35:46.194Z,11.80
2023-03-26T18:38:36.111Z,11.98
2023-03-26T18:41:08.078Z,10.02
2023-03-26T18:43:43.538Z,11.75
2023-03-26T18:46:13.350Z,9.88
2023-03-26T18:48:40.684Z,11.82
2023-03-26T18:51:08.041Z,11.38
2023-03-26T18:53:40.793Z,10.73
2023-03-26T18:56:35.192Z,10.65
2023-03-26T18:59:06.773Z,12.00
2023-03-26T19:01:36.587Z,10.75
2023-03-26T19:04:05.848Z,9.57
2023-03-26T19:06:38.384Z,10.63
2023-03-26T19:09:13.528Z,11.13
2023-03-26T19:11:48.822Z,9.95
2023-03-26T19:14:17.737Z,9.07
2023-03-26T19:16:54.050Z,9.65
2023-03-26T19:19:23.097Z,9.40
2023-03-26T19:21:51.031Z,9.95
2023-03-26T19:24:23.991Z,10.82
2023-03-26T19:26:52.107Z,12.43
2023-03-26T19:29:24.751Z,14.52
2023-03-26T19:31:54.917Z,15.13
2023-03-26T19:34:30.011Z,12.70
2023-03-26T19:36:59.435Z,13.25
2023-03-26T19:39:41.636Z,12.95
2023-03-26T19:42:23.865Z,13.60
2023-03-26T19:44:53.838Z,12.63
2023-03-26T19:47:52.204Z,10.52
2023-03-26T19:50:27.342Z,11.07
2023-03-26T19:53:29.876Z,11.10
2023-03-26T19:58:31.443Z,10.35
2023-03-26T20:00:59.161Z,9.25
2023-03-26T20:03:42.256Z,8.88
2023-03-26T20:06:13.790Z,7.93
2023-03-26T20:08:47.158Z,8.75
2023-03-26T20:11:16.666Z,7.70
2023-03-26T20:13:46.474Z,8.25
2023-03-26T20:16:41.642Z,8.07
2023-03-26T20:19:11.147Z,7.13
2023-03-26T20:21:38.481Z,8.52
2023-03-26T20:24:14.702Z,7.72
2023-03-26T20:26:42.546Z,8.32
2023-03-26T20:29:10.280Z,9.27
2023-03-26T20:31:38.334Z,8.18
2023-03-26T20:34:06.652Z,7.93
2023-03-26T20:36:36.876Z,9.50
2023-03-26T20:39:08.006Z,9.38
2023-03-26T20:41:41.667Z,8.43
2023-03-26T20:44:13.781Z,7.95
2023-03-26T20:46:43.026Z,8.70
2023-03-26T20:49:10.980Z,8.05
2023-03-26T20:51:38.766Z,7.85
2023-03-26T20:54:21.386Z,7.75
2023-03-26T20:56:49.190Z,8.45
2023-03-26T20:59:19.167Z,8.25
2023-03-26T21:01:49.909Z,7.43
2023-03-26T21:04:17.554Z,7.75
2023-03-26T21:06:45.157Z,7.82
2023-03-26T21:09:15.054Z,7.38
2023-03-26T21:11:53.695Z,8.85
2023-03-26T21:14:25.440Z,8.33
2023-03-26T21:16:53.054Z,8.77
2023-03-26T21:19:21.073Z,8.70
2023-03-26T21:22:00.874Z,9.70
2023-03-26T21:24:29.619Z,8.82
2023-03-26T21:27:19.438Z,7.35
2023-03-26T21:29:47.742Z,7.63
2023-03-26T21:32:15.316Z,8.23
2023-03-26T21:34:55.581Z,8.13
2023-03-26T21:37:25.724Z,8.57
2023-03-26T21:39:53.450Z,7.90
2023-03-26T21:42:20.881Z,9.18
2023-03-26T21:44:48.763Z,8.82
2023-03-26T21:47:18.994Z,9.10
2023-03-26T21:49:47.116Z,8.77
2023-03-26T21:52:15.371Z,8.85
2023-03-26T21:54:45.154Z,8.63
2023-03-26T21:57:30.809Z,8.07
2023-03-26T22:00:18.393Z,8.82
2023-03-26T22:02:53.337Z,8.15
2023-03-26T22:05:46.061Z,7.72
2023-03-26T22:08:27.643Z,8.23
2023-03-26T22:10:55.144Z,8.93
2023-03-26T22:13:28.663Z,8.45
2023-03-26T22:15:56.951Z,8.82
2023-03-26T22:18:26.062Z,8.15
2023-03-26T22:20:56.537Z,9.63
2023-03-26T22:23:23.970Z,9.43
2023-03-26T22:25:51.535Z,9.13
2023-03-26T22:28:19.330Z,9.32
2023-03-26T22:30:46.699Z,8.63
2023-03-26T22:33:17.997Z,10.27
2023-03-26T22:35:47.019Z,11.20
2023-03-26T22:38:14.964Z,8.77
2023-03-26T22:40:42.826Z,8.90
2023-03-26T22:43:10.517Z,8.52
2023-03-26T22:45:41.043Z,9.05
2023-03-26T22:48:08.541Z,8.48
2023-03-26T22:50:35.857Z,9.23
2023-03-26T22:53:05.055Z,9.48
2023-03-26T22:55:32.424Z,9.18
2023-03-26T22:58:05.155Z,8.90
2023-03-26T23:00:32.395Z,9.32
2023-03-26T23:03:01.047Z,10.18
2023-03-26T23:05:29.800Z,9.82
2023-03-26T23:07:57.921Z,10.48
2023-03-26T23:10:25.147Z,9.95
2023-03-26T23:12:52.845Z,10.43
2023-03-26T23:15:20.637Z,9.57
2023-03-26T23:17:54.536Z,9.55
2023-03-26T23:20:22.500Z,10.32
2023-03-26T23:22:50.824Z,9.02
2023-03-26T23:25:18.092Z,8.65
2023-03-26T23:27:45.938Z,8.27
2023-03-26T23:30:13.504Z,8.70
2023-03-26T23:32:49.668Z,9.40
2023-03-26T23:35:17.261Z,8.20
2023-03-26T23:37:44.544Z,8.90
2023-03-26T23:40:13.366Z,8.45
2023-03-26T23:42:40.805Z,9.52
2023-03-26T23:45:08.993Z,9.32
2023-03-26T23:47:37.347Z,9.25
2023-03-26T23:50:06.402Z,9.60
2023-03-26T23:52:34.210Z,8.73
2023-03-26T23:55:01.501Z,9.43
2023-03-26T23:57:30.582Z,10.23
2023-03-26T23:59:58.398Z,10.35
